Time;durP1;ratioP1;P1;durP2;ratioP2;P2;SDS_P1;SDS_P2;PMS_P1;PMS_P2;Temp;Humidity;BMP_temperature;BMP_pressure;BME280_temperature;BME280_humidity;BME280_pressure;Samples;Min_cycle;Max_cycle;Signal;HPM_P1;HPM_P2
2020/12/12 00:01:06;;;;;;;10.85;5.10;;;;;;;;;;5065643;28;20040;-75
2020/12/12 00:03:52;;;;;;;7.88;4.57;;;;;;;;;;5050034;28;20044;-74
2020/12/12 00:06:39;;;;;;;8.45;4.13;;;;;;;;;;5049324;28;20044;-75
2020/12/12 00:09:05;;;;;;;9.00;4.40;;;;;;;;;;5071137;28;20044;-76
2020/12/12 00:11:31;;;;;;;5.53;4.15;;;;;;;;;;5065187;28;20037;-72
2020/12/12 00:13:58;;;;;;;5.95;4.22;;;;;;;;;;5033698;28;20449;-74
2020/12/12 00:16:24;;;;;;;7.55;4.55;;;;;;;;;;5066062;28;20045;-78
2020/12/12 00:19:10;;;;;;;8.07;4.72;;;;;;;;;;5050546;28;20382;-71
2020/12/12 00:21:37;;;;;;;6.32;4.80;;;;;;;;;;5064545;28;20096;-75
2020/12/12 00:24:03;;;;;;;7.25;4.18;;;;;;;;;;5043547;28;20056;-71
2020/12/12 00:26:29;;;;;;;5.82;4.00;;;;;;;;;;5043223;28;20067;-74
2020/12/12 00:28:55;;;;;;;5.85;4.50;;;;;;;;;;5064610;28;20425;-71
2020/12/12 00:31:22;;;;;;;7.57;5.50;;;;;;;;;;5047034;28;20036;-72
2020/12/12 00:34:08;;;;;;;5.82;4.35;;;;;;;;;;5071821;28;20044;-72
2020/12/12 00:36:55;;;;;;;6.10;4.22;;;;;;;;;;5048732;28;20048;-72
2020/12/12 00:39:22;;;;;;;6.68;4.72;;;;;;;;;;5064919;28;20105;-74
2020/12/12 00:41:48;;;;;;;7.57;4.60;;;;;;;;;;5072124;28;20045;-72
2020/12/12 00:44:15;;;;;;;4.60;3.60;;;;;;;;;;5069638;28;20041;-71
2020/12/12 00:46:41;;;;;;;6.47;4.45;;;;;;;;;;5065279;28;20044;-76
2020/12/12 00:49:09;;;;;;;6.95;4.38;;;;;;;;;;5065506;28;20036;-72
2020/12/12 00:51:35;;;;;;;4.82;4.03;;;;;;;;;;5065240;28;20101;-77
2020/12/12 00:54:21;;;;;;;5.60;4.35;;;;;;;;;;5050494;28;20449;-76
2020/12/12 00:56:48;;;;;;;5.57;4.30;;;;;;;;;;5065107;28;20044;-71
2020/12/12 00:59:15;;;;;;;6.25;4.53;;;;;;;;;;5064988;28;20176;-74
2020/12/12 01:01:41;;;;;;;7.30;4.70;;;;;;;;;;5047573;28;20063;-73
2020/12/12 01:04:07;;;;;;;7.10;4.32;;;;;;;;;;5064623;28;20085;-74
2020/12/12 01:06:33;;;;;;;5.47;4.25;;;;;;;;;;5064443;28;20058;-74
2020/12/12 01:09:00;;;;;;;5.60;4.10;;;;;;;;;;5031229;28;20040;-71
2020/12/12 01:11:26;;;;;;;5.95;4.25;;;;;;;;;;5063694;28;20081;-75
2020/12/12 01:14:12;;;;;;;7.25;4.90;;;;;;;;;;5049616;28;20420;-76
2020/12/12 01:16:38;;;;;;;5.85;4.80;;;;;;;;;;5064328;28;21415;-74
2020/12/12 01:19:05;;;;;;;6.93;4.72;;;;;;;;;;5029859;28;20040;-73
2020/12/12 01:21:31;;;;;;;6.55;4.57;;;;;;;;;;5067181;28;20056;-74
2020/12/12 01:23:57;;;;;;;6.00;4.68;;;;;;;;;;5069322;28;20128;-74
2020/12/12 01:26:23;;;;;;;5.88;4.55;;;;;;;;;;5069297;28;20048;-76
2020/12/12 01:28:50;;;;;;;5.53;4.40;;;;;;;;;;5065817;28;20802;-73
2020/12/12 01:31:36;;;;;;;5.63;4.53;;;;;;;;;;5048669;28;20119;-72
2020/12/12 01:34:02;;;;;;;6.38;5.00;;;;;;;;;;5045176;28;20075;-73
2020/12/12 01:36:28;;;;;;;5.90;4.57;;;;;;;;;;5070032;28;20051;-76
2020/12/12 01:38:54;;;;;;;5.68;4.38;;;;;;;;;;5064971;28;20141;-73
2020/12/12 01:41:22;;;;;;;5.85;4.63;;;;;;;;;;5061636;28;20488;-73
2020/12/12 01:43:50;;;;;;;6.50;4.38;;;;;;;;;;5063907;28;20032;-76
2020/12/12 01:46:21;;;;;;;6.28;4.68;;;;;;;;;;5072757;28;20044;-76
2020/12/12 01:48:48;;;;;;;5.55;4.47;;;;;;;;;;5064220;28;20040;-72
2020/12/12 01:51:14;;;;;;;5.47;4.15;;;;;;;;;;5046252;28;20106;-75
2020/12/12 01:53:41;;;;;;;6.10;4.72;;;;;;;;;;5064420;28;20044;-74
2020/12/12 01:56:07;;;;;;;5.47;4.10;;;;;;;;;;5062710;28;20113;-77
2020/12/12 01:58:33;;;;;;;6.03;4.55;;;;;;;;;;5067618;28;20040;-75
2020/12/12 02:01:00;;;;;;;7.50;4.47;;;;;;;;;;5066543;28;20369;-72
2020/12/12 02:03:26;;;;;;;7.13;4.95;;;;;;;;;;5067852;28;20260;-77
2020/12/12 02:05:53;;;;;;;5.88;4.60;;;;;;;;;;5067287;28;20464;-75
2020/12/12 02:08:20;;;;;;;5.35;4.45;;;;;;;;;;5066705;28;20089;-73
2020/12/12 02:10:47;;;;;;;6.03;4.68;;;;;;;;;;5066507;28;20137;-71
2020/12/12 02:13:14;;;;;;;5.63;4.00;;;;;;;;;;5068177;28;20447;-73
2020/12/12 02:15:40;;;;;;;6.20;4.55;;;;;;;;;;5067804;28;20029;-73
2020/12/12 02:18:27;;;;;;;7.07;4.45;;;;;;;;;;5052157;28;20040;-73
2020/12/12 02:21:13;;;;;;;5.60;4.28;;;;;;;;;;5052272;28;20040;-75
2020/12/12 02:23:59;;;;;;;6.13;4.40;;;;;;;;;;5051678;28;20041;-77
2020/12/12 02:26:46;;;;;;;5.57;4.57;;;;;;;;;;5070313;28;20477;-76
2020/12/12 02:29:12;;;;;;;5.55;4.65;;;;;;;;;;5067442;28;20036;-76
2020/12/12 02:31:39;;;;;;;5.53;4.45;;;;;;;;;;5047582;28;20029;-76
2020/12/12 02:34:06;;;;;;;5.40;4.47;;;;;;;;;;5074468;28;20041;-76
2020/12/12 02:36:52;;;;;;;4.25;3.72;;;;;;;;;;5070390;28;20048;-76
2020/12/12 02:39:18;;;;;;;6.28;4.93;;;;;;;;;;5068305;28;20110;-75
2020/12/12 02:41:45;;;;;;;6.05;4.53;;;;;;;;;;5067209;28;20040;-70
2020/12/12 02:44:12;;;;;;;5.90;4.35;;;;;;;;;;5049366;28;20079;-76
2020/12/12 02:46:38;;;;;;;6.13;5.03;;;;;;;;;;5072965;28;20063;-76
2020/12/12 02:49:04;;;;;;;5.75;4.43;;;;;;;;;;5067532;28;20032;-75
2020/12/12 02:51:31;;;;;;;6.10;4.95;;;;;;;;;;5066958;28;20041;-75
2020/12/12 02:53:57;;;;;;;6.53;4.85;;;;;;;;;;5067877;28;20094;-73
2020/12/12 02:56:23;;;;;;;5.97;4.85;;;;;;;;;;5066166;28;20093;-72
2020/12/12 02:58:49;;;;;;;5.65;4.65;;;;;;;;;;5044852;28;20489;-75
2020/12/12 03:01:40;;;;;;;5.60;4.30;;;;;;;;;;5052050;28;20525;-72
2020/12/12 03:04:26;;;;;;;5.32;4.28;;;;;;;;;;5073015;28;20083;-71
2020/12/12 03:06:52;;;;;;;6.60;4.13;;;;;;;;;;5067536;28;20060;-74
2020/12/12 03:09:39;;;;;;;7.20;5.13;;;;;;;;;;5058182;28;20063;-75
2020/12/12 03:12:05;;;;;;;6.05;4.70;;;;;;;;;;5066551;28;20359;-73
2020/12/12 03:14:31;;;;;;;5.53;4.50;;;;;;;;;;5069609;28;20060;-72
2020/12/12 03:16:57;;;;;;;6.05;4.80;;;;;;;;;;5067246;28;20041;-71
2020/12/12 03:19:24;;;;;;;5.95;4.53;;;;;;;;;;5066762;28;20059;-75
2020/12/12 03:21:50;;;;;;;5.40;4.45;;;;;;;;;;5067154;28;20036;-73
2020/12/12 03:24:36;;;;;;;5.40;4.45;;;;;;;;;;5050511;28;20072;-74
2020/12/12 03:27:03;;;;;;;5.72;4.63;;;;;;;;;;5074671;28;20052;-76
2020/12/12 03:29:29;;;;;;;5.97;4.50;;;;;;;;;;5067182;28;20999;-76
2020/12/12 03:31:55;;;;;;;5.25;4.72;;;;;;;;;;5066867;28;20393;-76
2020/12/12 03:34:21;;;;;;;6.05;5.00;;;;;;;;;;5065785;28;20029;-76
2020/12/12 03:36:48;;;;;;;5.22;4.30;;;;;;;;;;5066593;28;20071;-74
2020/12/12 03:39:14;;;;;;;5.82;4.70;;;;;;;;;;5066080;28;20388;-73
2020/12/12 03:41:40;;;;;;;5.60;4.57;;;;;;;;;;5064183;28;20483;-72
2020/12/12 03:44:06;;;;;;;5.68;4.80;;;;;;;;;;5066656;28;20181;-74
2020/12/12 03:46:33;;;;;;;5.70;4.22;;;;;;;;;;5065792;28;20048;-74
2020/12/12 03:48:59;;;;;;;6.10;4.90;;;;;;;;;;5043804;28;20106;-75
2020/12/12 03:51:25;;;;;;;4.97;4.18;;;;;;;;;;5070273;28;20037;-77
2020/12/12 03:53:51;;;;;;;5.38;4.68;;;;;;;;;;5065226;28;20041;-70
2020/12/12 03:56:18;;;;;;;7.28;4.63;;;;;;;;;;5072547;28;20117;-73
2020/12/12 03:59:04;;;;;;;7.33;5.03;;;;;;;;;;5047273;28;20045;-74
2020/12/12 04:01:32;;;;;;;5.60;4.47;;;;;;;;;;5062089;28;20307;-78
2020/12/12 04:03:58;;;;;;;5.03;4.40;;;;;;;;;;5060786;28;20041;-72
2020/12/12 04:06:24;;;;;;;6.57;4.70;;;;;;;;;;5055749;28;20037;-75
2020/12/12 04:09:11;;;;;;;5.82;4.25;;;;;;;;;;5045912;28;20148;-73
2020/12/12 04:11:37;;;;;;;5.40;4.53;;;;;;;;;;5056882;28;20055;-75
2020/12/12 04:14:03;;;;;;;7.28;4.45;;;;;;;;;;5057729;28;20078;-73
2020/12/12 04:16:29;;;;;;;5.97;4.85;;;;;;;;;;5047716;28;20406;-72
2020/12/12 04:18:56;;;;;;;5.32;4.30;;;;;;;;;;5060937;28;20036;-76
2020/12/12 04:21:23;;;;;;;6.07;4.45;;;;;;;;;;5059271;28;20120;-77
2020/12/12 04:23:49;;;;;;;5.93;4.40;;;;;;;;;;5061957;28;20128;-77
2020/12/12 04:26:15;;;;;;;5.93;4.65;;;;;;;;;;5060302;28;20169;-76
2020/12/12 04:29:01;;;;;;;4.97;4.22;;;;;;;;;;5049268;28;20045;-74
2020/12/12 04:31:28;;;;;;;5.05;4.45;;;;;;;;;;5061190;28;20043;-75
2020/12/12 04:33:54;;;;;;;6.55;4.57;;;;;;;;;;5050296;28;20075;-77
2020/12/12 04:36:20;;;;;;;4.95;4.10;;;;;;;;;;5059257;28;20496;-73
2020/12/12 04:39:06;;;;;;;5.88;4.70;;;;;;;;;;5052649;28;20310;-77
2020/12/12 04:41:34;;;;;;;6.10;4.72;;;;;;;;;;5054111;28;20050;-71
2020/12/12 04:44:01;;;;;;;5.47;4.20;;;;;;;;;;5055416;28;20079;-73
2020/12/12 04:46:28;;;;;;;5.93;4.40;;;;;;;;;;5059088;28;20044;-74
2020/12/12 04:48:54;;;;;;;5.72;4.88;;;;;;;;;;5061087;28;20114;-73
2020/12/12 04:51:41;;;;;;;5.00;4.40;;;;;;;;;;5055350;28;20132;-72
2020/12/12 04:54:31;;;;;;;6.03;4.60;;;;;;;;;;5060346;28;20045;-75
2020/12/12 04:56:58;;;;;;;5.45;4.25;;;;;;;;;;5056560;28;20393;-75
2020/12/12 04:59:27;;;;;;;6.07;4.65;;;;;;;;;;5057616;28;20075;-74
2020/12/12 05:01:54;;;;;;;5.00;4.00;;;;;;;;;;5065623;28;20047;-71
2020/12/12 05:04:20;;;;;;;5.30;4.30;;;;;;;;;;5030157;28;20064;-73
2020/12/12 05:06:46;;;;;;;5.47;4.10;;;;;;;;;;5064541;28;20075;-74
2020/12/12 05:09:32;;;;;;;6.78;4.50;;;;;;;;;;5071098;28;20606;-73
2020/12/12 05:12:19;;;;;;;5.65;4.50;;;;;;;;;;5069875;28;20076;-75
2020/12/12 05:14:50;;;;;;;5.25;4.32;;;;;;;;;;5043904;28;21713;-74
2020/12/12 05:17:17;;;;;;;5.88;4.30;;;;;;;;;;5060869;28;20048;-73
2020/12/12 05:19:47;;;;;;;9.10;4.78;;;;;;;;;;5068220;28;20732;-75
2020/12/12 05:22:34;;;;;;;5.78;4.90;;;;;;;;;;5050140;28;20056;-76
2020/12/12 05:25:01;;;;;;;5.65;4.25;;;;;;;;;;5064531;28;20145;-76
2020/12/12 05:27:27;;;;;;;4.85;4.03;;;;;;;;;;5061454;28;21563;-71
2020/12/12 05:29:58;;;;;;;5.55;3.97;;;;;;;;;;5062844;28;20061;-75
2020/12/12 05:32:46;;;;;;;5.65;3.97;;;;;;;;;;5049564;28;20041;-74
2020/12/12 05:35:13;;;;;;;4.65;3.90;;;;;;;;;;5068916;28;20032;-73
2020/12/12 05:37:39;;;;;;;4.50;3.65;;;;;;;;;;5048154;28;20075;-74
2020/12/12 05:40:06;;;;;;;4.78;3.63;;;;;;;;;;5062323;28;20036;-74
2020/12/12 05:42:34;;;;;;;5.18;3.83;;;;;;;;;;5062961;28;20369;-74
2020/12/12 05:45:21;;;;;;;4.28;3.50;;;;;;;;;;5071944;28;20429;-74
2020/12/12 05:47:47;;;;;;;4.28;3.53;;;;;;;;;;5067383;28;20045;-76
2020/12/12 05:50:13;;;;;;;5.00;3.83;;;;;;;;;;5049671;28;20048;-76
2020/12/12 05:52:41;;;;;;;5.40;3.40;;;;;;;;;;5070254;28;20524;-71
2020/12/12 05:55:08;;;;;;;5.45;3.53;;;;;;;;;;5065248;28;20040;-72
2020/12/12 05:57:55;;;;;;;;;;;;;;;;;;5075044;28;20036;-76
2020/12/12 06:00:22;;;;;;;5.47;3.70;;;;;;;;;;5049337;28;19974;-76
2020/12/12 06:02:56;;;;;;;4.82;3.70;;;;;;;;;;5068431;28;20055;-74
2020/12/12 06:05:24;;;;;;;4.38;3.35;;;;;;;;;;5050639;28;20041;-73
2020/12/12 06:07:53;;;;;;;4.68;3.42;;;;;;;;;;5067658;28;20462;-73
2020/12/12 06:10:43;;;;;;;5.15;3.63;;;;;;;;;;5051262;28;20166;-77
2020/12/12 06:13:09;;;;;;;5.00;3.42;;;;;;;;;;5072609;28;20032;-73
2020/12/12 06:15:37;;;;;;;4.93;3.60;;;;;;;;;;5073719;28;20043;-76
2020/12/12 06:18:04;;;;;;;4.97;3.63;;;;;;;;;;5066884;28;20048;-74
2020/12/12 06:20:31;;;;;;;5.07;3.53;;;;;;;;;;5046930;28;20063;-76
2020/12/12 06:22:58;;;;;;;4.45;3.30;;;;;;;;;;5066937;28;20044;-75
2020/12/12 06:25:26;;;;;;;4.00;3.33;;;;;;;;;;5066015;28;20087;-74
2020/12/12 06:27:55;;;;;;;3.80;3.05;;;;;;;;;;5068756;28;20044;-76
2020/12/12 06:30:42;;;;;;;3.67;2.88;;;;;;;;;;5052521;28;20464;-73
2020/12/12 06:33:09;;;;;;;3.70;3.00;;;;;;;;;;5050468;28;20032;-75
2020/12/12 06:35:36;;;;;;;3.95;2.90;;;;;;;;;;5047328;28;20033;-78
2020/12/12 06:38:23;;;;;;;4.38;3.55;;;;;;;;;;5053092;28;20036;-74
2020/12/12 06:40:51;;;;;;;4.43;3.28;;;;;;;;;;5064510;28;20060;-76
2020/12/12 06:43:30;;;;;;;5.38;3.72;;;;;;;;;;5065302;28;20075;-73
2020/12/12 06:46:18;;;;;;;4.30;3.30;;;;;;;;;;5072069;28;20056;-77
2020/12/12 06:48:44;;;;;;;4.43;3.38;;;;;;;;;;5067380;28;20482;-74
2020/12/12 06:51:11;;;;;;;5.07;3.50;;;;;;;;;;5064261;28;20443;-74
2020/12/12 06:54:07;;;;;;;4.93;3.60;;;;;;;;;;5051910;28;20178;-75
2020/12/12 06:56:54;;;;;;;4.80;3.40;;;;;;;;;;5034675;28;20044;-71
2020/12/12 06:59:25;;;;;;;4.82;3.42;;;;;;;;;;5071367;28;20755;-74
2020/12/12 07:01:53;;;;;;;4.20;3.20;;;;;;;;;;5044216;28;20124;-75
2020/12/12 07:04:41;;;;;;;4.60;3.22;;;;;;;;;;5072121;28;20091;-76
2020/12/12 07:07:09;;;;;;;5.78;3.35;;;;;;;;;;5066570;28;20744;-72
2020/12/12 07:09:37;;;;;;;4.45;3.25;;;;;;;;;;5064745;28;20796;-71
2020/12/12 07:12:24;;;;;;;4.13;3.25;;;;;;;;;;5064897;28;20434;-75
2020/12/12 07:15:10;;;;;;;6.32;3.47;;;;;;;;;;5051881;28;20094;-77
2020/12/12 07:17:36;;;;;;;4.03;3.10;;;;;;;;;;5071635;28;20064;-75
2020/12/12 07:20:03;;;;;;;3.95;3.00;;;;;;;;;;5064781;28;20128;-71
2020/12/12 07:22:30;;;;;;;3.65;2.95;;;;;;;;;;5066694;28;20101;-76
2020/12/12 07:24:57;;;;;;;5.50;3.30;;;;;;;;;;5066478;28;20063;-76
2020/12/12 07:27:23;;;;;;;4.20;3.05;;;;;;;;;;5053172;28;20037;-76
2020/12/12 07:29:49;;;;;;;4.15;3.22;;;;;;;;;;5048201;28;20044;-74
2020/12/12 07:32:16;;;;;;;4.28;3.13;;;;;;;;;;5047730;28;20039;-75
2020/12/12 07:34:42;;;;;;;4.35;3.42;;;;;;;;;;5043310;28;20834;-74
2020/12/12 07:37:09;;;;;;;5.07;3.30;;;;;;;;;;5047196;28;20114;-74
2020/12/12 07:39:36;;;;;;;4.10;3.30;;;;;;;;;;5043980;28;20731;-75
2020/12/12 07:42:03;;;;;;;5.70;3.47;;;;;;;;;;5046753;28;20056;-75
2020/12/12 07:44:31;;;;;;;3.35;2.70;;;;;;;;;;5046768;28;20076;-73
2020/12/12 07:47:01;;;;;;;4.00;3.13;;;;;;;;;;5045527;28;20044;-73
2020/12/12 07:49:48;;;;;;;4.40;3.35;;;;;;;;;;5044093;28;20048;-73
2020/12/12 07:52:34;;;;;;;4.20;3.10;;;;;;;;;;5045586;28;20049;-76
2020/12/12 07:55:06;;;;;;;3.50;2.80;;;;;;;;;;5042957;28;20051;-74
2020/12/12 07:57:56;;;;;;;4.20;3.08;;;;;;;;;;5045159;28;20053;-72
2020/12/12 08:00:22;;;;;;;4.20;2.95;;;;;;;;;;5044956;28;20437;-79
2020/12/12 08:02:56;;;;;;;4.32;3.05;;;;;;;;;;5045316;28;20052;-76
2020/12/12 08:05:23;;;;;;;3.63;2.83;;;;;;;;;;5040615;28;20416;-74
2020/12/12 08:07:50;;;;;;;4.40;3.15;;;;;;;;;;5045012;28;20390;-77
2020/12/12 08:10:36;;;;;;;5.03;3.10;;;;;;;;;;5027183;28;20059;-74
2020/12/12 08:13:23;;;;;;;4.25;3.25;;;;;;;;;;5045243;28;20041;-77
2020/12/12 08:15:58;;;;;;;4.75;3.65;;;;;;;;;;5038286;28;20033;-77
2020/12/12 08:18:24;;;;;;;3.88;2.90;;;;;;;;;;5042713;28;20041;-74
2020/12/12 08:21:11;;;;;;;4.88;3.08;;;;;;;;;;5027974;28;20499;-73
2020/12/12 08:23:38;;;;;;;4.32;2.90;;;;;;;;;;5039709;28;20091;-73
2020/12/12 08:26:05;;;;;;;3.78;3.13;;;;;;;;;;5054585;28;20084;-74
2020/12/12 08:28:32;;;;;;;5.15;3.45;;;;;;;;;;5065287;28;20036;-74
2020/12/12 08:31:08;;;;;;;6.35;3.40;;;;;;;;;;5071908;28;20037;-76
2020/12/12 08:33:35;;;;;;;9.13;3.10;;;;;;;;;;5058758;28;20085;-72
2020/12/12 08:36:14;;;;;;;6.22;3.60;;;;;;;;;;5062474;28;20044;-78
2020/12/12 08:38:41;;;;;;;6.60;3.53;;;;;;;;;;5066551;28;20036;-74
2020/12/12 08:41:12;;;;;;;6.63;3.38;;;;;;;;;;5065885;28;20032;-75
2020/12/12 08:43:58;;;;;;;7.22;3.30;;;;;;;;;;5068699;28;20045;-76
2020/12/12 08:46:25;;;;;;;6.32;3.50;;;;;;;;;;5065720;28;20468;-74
2020/12/12 08:48:54;;;;;;;5.47;3.17;;;;;;;;;;5069415;28;20094;-72
2020/12/12 08:51:24;;;;;;;7.90;3.55;;;;;;;;;;5065968;28;20040;-74
2020/12/12 08:53:51;;;;;;;6.13;3.70;;;;;;;;;;5065024;28;20125;-75
2020/12/12 08:56:26;;;;;;;5.90;4.13;;;;;;;;;;5057084;28;20040;-75
2020/12/12 08:59:02;;;;;;;10.75;3.75;;;;;;;;;;5061535;28;20127;-71
2020/12/12 09:01:49;;;;;;;7.22;3.53;;;;;;;;;;5071328;28;20349;-73
2020/12/12 09:04:20;;;;;;;8.90;3.38;;;;;;;;;;5065118;28;20110;-75
2020/12/12 09:06:48;;;;;;;11.45;3.60;;;;;;;;;;5072367;28;20036;-74
2020/12/12 09:09:22;;;;;;;6.45;3.67;;;;;;;;;;5060105;28;20470;-73
2020/12/12 09:11:53;;;;;;;5.03;3.53;;;;;;;;;;5055237;28;20052;-73
2020/12/12 09:14:20;;;;;;;5.57;3.70;;;;;;;;;;5064919;28;20033;-76
2020/12/12 09:16:48;;;;;;;6.63;3.50;;;;;;;;;;5071878;28;20039;-75
2020/12/12 09:19:14;;;;;;;6.47;3.92;;;;;;;;;;5058722;28;20067;-76
2020/12/12 09:22:01;;;;;;;5.47;3.33;;;;;;;;;;5067684;28;20507;-76
2020/12/12 09:24:28;;;;;;;9.20;4.13;;;;;;;;;;5060669;28;20063;-71
2020/12/12 09:26:55;;;;;;;6.18;3.85;;;;;;;;;;5060248;28;20043;-72
2020/12/12 09:29:22;;;;;;;8.07;4.05;;;;;;;;;;5071475;28;20033;-74
2020/12/12 09:31:50;;;;;;;8.50;4.15;;;;;;;;;;5065281;28;20126;-75
2020/12/12 09:34:18;;;;;;;6.75;3.88;;;;;;;;;;5048553;28;20029;-73
2020/12/12 09:36:44;;;;;;;7.63;4.22;;;;;;;;;;5066801;28;20101;-77
2020/12/12 09:39:11;;;;;;;9.35;4.47;;;;;;;;;;5065357;28;20094;-74
2020/12/12 09:41:58;;;;;;;9.25;4.00;;;;;;;;;;5071342;28;20059;-73
2020/12/12 09:44:24;;;;;;;16.33;3.92;;;;;;;;;;5048074;28;20051;-75
2020/12/12 09:47:11;;;;;;;5.90;3.80;;;;;;;;;;5050647;28;20139;-74
2020/12/12 09:49:37;;;;;;;14.05;3.88;;;;;;;;;;5064579;28;20111;-73
2020/12/12 09:52:04;;;;;;;6.95;3.65;;;;;;;;;;5064853;28;20185;-73
2020/12/12 09:54:50;;;;;;;9.38;4.25;;;;;;;;;;5069192;28;20044;-73
2020/12/12 09:57:16;;;;;;;18.30;4.22;;;;;;;;;;5064303;28;20037;-71
2020/12/12 09:59:42;;;;;;;10.23;4.22;;;;;;;;;;5064019;28;20136;-74
2020/12/12 10:02:29;;;;;;;13.55;10.88;;;;;;;;;;5055956;28;20047;-75
2020/12/12 10:04:55;;;;;;;17.38;11.25;;;;;;;;;;5045584;28;20110;-74
2020/12/12 10:07:22;;;;;;;16.38;10.60;;;;;;;;;;5062901;28;20044;-74
2020/12/12 10:09:48;;;;;;;20.52;9.90;;;;;;;;;;5063702;28;20447;-72
2020/12/12 10:12:14;;;;;;;15.35;9.15;;;;;;;;;;5059370;28;20036;-72
2020/12/12 10:14:41;;;;;;;18.20;9.45;;;;;;;;;;5073320;28;20041;-72
2020/12/12 10:17:29;;;;;;;22.38;9.52;;;;;;;;;;5042415;28;20387;-71
2020/12/12 10:19:56;;;;;;;27.77;10.52;;;;;;;;;;5067415;28;20051;-74
2020/12/12 10:22:22;;;;;;;42.20;11.30;;;;;;;;;;5069109;28;20040;-76
2020/12/12 10:24:48;;;;;;;22.65;11.23;;;;;;;;;;5054382;28;20160;-74
2020/12/12 10:27:15;;;;;;;25.38;10.15;;;;;;;;;;5030225;28;20044;-74
2020/12/12 10:30:01;;;;;;;24.10;11.45;;;;;;;;;;5014152;28;20140;-74
2020/12/12 10:32:27;;;;;;;22.42;10.35;;;;;;;;;;5030478;28;20138;-74
2020/12/12 10:34:54;;;;;;;23.48;10.43;;;;;;;;;;5029987;28;20034;-74
2020/12/12 10:37:20;;;;;;;18.08;10.27;;;;;;;;;;5029457;28;20149;-74
2020/12/12 10:39:53;;;;;;;23.30;12.43;;;;;;;;;;5026774;28;20574;-75
2020/12/12 10:42:20;;;;;;;28.33;16.05;;;;;;;;;;5027617;28;20121;-73
2020/12/12 10:45:07;;;;;;;30.67;18.52;;;;;;;;;;5045921;28;20128;-74
2020/12/12 10:47:33;;;;;;;29.92;15.05;;;;;;;;;;5019580;28;20076;-74
2020/12/12 10:50:20;;;;;;;29.25;13.07;;;;;;;;;;5008147;28;20038;-72
2020/12/12 10:53:08;;;;;;;33.80;12.77;;;;;;;;;;5038381;28;20466;-73
2020/12/12 10:55:35;;;;;;;33.55;12.02;;;;;;;;;;5016793;28;20065;-74
2020/12/12 10:58:01;;;;;;;28.90;10.30;;;;;;;;;;5017043;28;20136;-71
2020/12/12 11:00:48;;;;;;;20.98;10.40;;;;;;;;;;5018068;28;20140;-71
2020/12/12 11:03:15;;;;;;;22.40;10.25;;;;;;;;;;5016432;28;20078;-72
2020/12/12 11:05:41;;;;;;;20.67;10.13;;;;;;;;;;5019808;28;20363;-74
2020/12/12 11:08:08;;;;;;;17.63;8.55;;;;;;;;;;5019130;28;20145;-73
2020/12/12 11:10:34;;;;;;;16.27;9.40;;;;;;;;;;5020224;28;20045;-73
2020/12/12 11:13:20;;;;;;;21.00;8.43;;;;;;;;;;5025529;28;20045;-74
2020/12/12 11:16:07;;;;;;;18.00;8.15;;;;;;;;;;5008492;28;20037;-72
2020/12/12 11:18:54;;;;;;;19.95;8.32;;;;;;;;;;5036833;28;20960;-70
2020/12/12 11:21:21;;;;;;;15.07;7.70;;;;;;;;;;5016454;28;20082;-74
2020/12/12 11:23:48;;;;;;;20.83;8.05;;;;;;;;;;5016139;28;20582;-74
2020/12/12 11:26:14;;;;;;;15.05;8.07;;;;;;;;;;5054207;28;20053;-72
2020/12/12 11:28:42;;;;;;;14.73;7.75;;;;;;;;;;5056462;28;20431;-71
2020/12/12 11:31:08;;;;;;;64.82;20.30;;;;;;;;;;5057446;28;20134;-73
2020/12/12 11:34:01;;;;;;;25.88;9.55;;;;;;;;;;5063175;28;20135;-70
2020/12/12 11:36:43;;;;;;;23.45;9.07;;;;;;;;;;5053165;28;20154;-71
2020/12/12 11:39:22;;;;;;;19.80;8.88;;;;;;;;;;5065240;28;20949;-73
2020/12/12 11:42:03;;;;;;;46.00;9.27;;;;;;;;;;5063152;28;20041;-73
2020/12/12 11:44:48;;;;;;;23.10;12.18;;;;;;;;;;5053969;28;20037;-71
2020/12/12 11:47:34;;;;;;;28.75;10.75;;;;;;;;;;5046559;28;20848;-73
2020/12/12 11:50:00;;;;;;;22.23;10.65;;;;;;;;;;5058126;28;20052;-71
2020/12/12 11:52:26;;;;;;;23.30;11.25;;;;;;;;;;5052458;28;20040;-73
2020/12/12 11:54:53;;;;;;;25.65;9.80;;;;;;;;;;5063277;28;20056;-71
2020/12/12 11:57:19;;;;;;;21.77;9.80;;;;;;;;;;5057660;28;20383;-73
2020/12/12 11:59:46;;;;;;;20.48;9.25;;;;;;;;;;5056672;28;20119;-71
2020/12/12 12:02:32;;;;;;;19.58;9.07;;;;;;;;;;5030175;28;20049;-73
2020/12/12 12:04:58;;;;;;;18.33;9.45;;;;;;;;;;5042356;28;20056;-73
2020/12/12 12:07:25;;;;;;;13.45;8.30;;;;;;;;;;5056400;28;20033;-74
2020/12/12 12:10:04;;;;;;;19.30;9.25;;;;;;;;;;5062289;28;20121;-74
2020/12/12 12:12:30;;;;;;;14.35;8.77;;;;;;;;;;5058293;28;20174;-73
2020/12/12 12:14:56;;;;;;;12.27;7.88;;;;;;;;;;5056692;28;20041;-78
2020/12/12 12:17:23;;;;;;;13.85;7.75;;;;;;;;;;5040966;28;20039;-74
2020/12/12 12:19:49;;;;;;;14.98;8.48;;;;;;;;;;5068385;28;20215;-74
2020/12/12 12:22:15;;;;;;;13.75;9.25;;;;;;;;;;5064698;28;20093;-74
2020/12/12 12:24:42;;;;;;;13.73;8.32;;;;;;;;;;5062216;28;20572;-74
2020/12/12 12:27:28;;;;;;;11.90;8.95;;;;;;;;;;5066274;28;20052;-73
2020/12/12 12:29:55;;;;;;;11.32;7.80;;;;;;;;;;5068164;28;20127;-71
2020/12/12 12:32:21;;;;;;;11.38;7.63;;;;;;;;;;5054853;28;20040;-73
2020/12/12 12:34:48;;;;;;;14.40;7.65;;;;;;;;;;5057830;28;20037;-73
2020/12/12 12:37:14;;;;;;;12.55;7.85;;;;;;;;;;5059578;28;20122;-71
2020/12/12 12:40:00;;;;;;;11.10;8.35;;;;;;;;;;5045256;28;20049;-74
2020/12/12 12:42:26;;;;;;;12.23;7.65;;;;;;;;;;5035196;28;20377;-72
2020/12/12 12:44:53;;;;;;;15.90;8.07;;;;;;;;;;5056174;28;20056;-74
2020/12/12 12:47:20;;;;;;;21.92;8.98;;;;;;;;;;5055253;28;20044;-75
2020/12/12 12:49:46;;;;;;;12.23;8.00;;;;;;;;;;5038694;28;20098;-76
2020/12/12 12:52:13;;;;;;;20.80;8.18;;;;;;;;;;5055763;28;20036;-75
2020/12/12 12:54:59;;;;;;;34.53;10.15;;;;;;;;;;5041977;28;20539;-76
2020/12/12 12:57:46;;;;;;;36.00;10.48;;;;;;;;;;5062438;28;20422;-75
2020/12/12 13:00:12;;;;;;;31.88;8.70;;;;;;;;;;5052915;28;20037;-73
2020/12/12 13:02:38;;;;;;;32.17;8.90;;;;;;;;;;5050305;28;20044;-73
2020/12/12 13:05:04;;;;;;;27.98;8.90;;;;;;;;;;5052174;28;20107;-78
2020/12/12 13:07:51;;;;;;;21.92;8.15;;;;;;;;;;5039509;28;20064;-76
2020/12/12 13:10:18;;;;;;;17.10;7.93;;;;;;;;;;5051292;28;20159;-73
2020/12/12 13:12:44;;;;;;;21.27;8.35;;;;;;;;;;5050851;28;20045;-71
2020/12/12 13:15:31;;;;;;;15.93;8.07;;;;;;;;;;5057703;28;20155;-75
2020/12/12 13:18:01;;;;;;;18.40;8.25;;;;;;;;;;5047877;28;20036;-73
2020/12/12 13:21:05;;;;;;;17.88;7.88;;;;;;;;;;5037455;28;20100;-76
2020/12/12 13:23:52;;;;;;;16.20;7.88;;;;;;;;;;5027908;28;20075;-78
2020/12/12 13:26:38;;;;;;;16.52;7.97;;;;;;;;;;5010829;28;20121;-76
2020/12/12 13:32:09;;;;;;;16.33;7.95;;;;;;;;;;5013378;28;20068;-77
2020/12/12 13:34:36;;;;;;;14.00;7.30;;;;;;;;;;5012167;28;20048;-74
2020/12/12 13:37:02;;;;;;;17.38;9.07;;;;;;;;;;5024771;28;20042;-75
2020/12/12 13:39:29;;;;;;;25.02;9.88;;;;;;;;;;5010547;28;20041;-75
2020/12/12 13:42:17;;;;;;;21.95;12.15;;;;;;;;;;5021221;28;20216;-73
2020/12/12 13:44:43;;;;;;;20.98;11.88;;;;;;;;;;5012000;28;20045;-76
2020/12/12 13:47:10;;;;;;;20.20;10.95;;;;;;;;;;5039384;28;20087;-74
2020/12/12 13:49:37;;;;;;;24.35;10.55;;;;;;;;;;5026382;28;20041;-74
2020/12/12 13:52:04;;;;;;;20.63;10.80;;;;;;;;;;5028685;28;20087;-76
2020/12/12 13:54:50;;;;;;;19.05;10.02;;;;;;;;;;5035699;28;20087;-78
2020/12/12 13:57:16;;;;;;;15.90;9.45;;;;;;;;;;5017699;28;20037;-75
2020/12/12 13:59:43;;;;;;;16.92;10.27;;;;;;;;;;5017629;28;20430;-75
2020/12/12 14:02:09;;;;;;;15.90;9.75;;;;;;;;;;5015378;28;20045;-72
2020/12/12 14:04:36;;;;;;;13.18;9.52;;;;;;;;;;5042200;28;20072;-73
2020/12/12 14:07:06;;;;;;;16.75;11.43;;;;;;;;;;5027454;28;20064;-75
2020/12/12 14:23:11;;;;;;;18.27;11.00;;;;;;;;;;5018303;28;20045;-73
2020/12/12 14:28:24;;;;;;;20.35;11.43;;;;;;;;;;5036143;28;20060;-73
2020/12/12 14:30:51;;;;;;;28.08;12.48;;;;;;;;;;5039027;28;20040;-72
2020/12/12 14:33:37;;;;;;;16.85;11.57;;;;;;;;;;5044304;28;20547;-70
2020/12/12 14:36:04;;;;;;;20.10;10.50;;;;;;;;;;5034163;28;20115;-75
2020/12/12 14:38:30;;;;;;;26.60;10.90;;;;;;;;;;5037092;28;20422;-72
2020/12/12 14:40:56;;;;;;;17.25;9.80;;;;;;;;;;5039066;28;20053;-72
2020/12/12 14:43:23;;;;;;;22.90;9.15;;;;;;;;;;5037577;28;20487;-72
2020/12/12 14:45:49;;;;;;;17.00;9.85;;;;;;;;;;5035562;28;20092;-72
2020/12/12 14:48:35;;;;;;;15.60;8.32;;;;;;;;;;5024485;28;20489;-74
2020/12/12 14:51:21;;;;;;;12.45;8.40;;;;;;;;;;5019772;28;20056;-76
2020/12/12 14:53:48;;;;;;;19.40;8.38;;;;;;;;;;5034161;28;20037;-70
2020/12/12 14:56:14;;;;;;;15.48;8.45;;;;;;;;;;5069603;28;20410;-71
2020/12/12 14:58:40;;;;;;;18.30;8.23;;;;;;;;;;5042957;28;20047;-70
2020/12/12 15:01:08;;;;;;;16.75;7.82;;;;;;;;;;5046217;28;20422;-71
2020/12/12 15:03:34;;;;;;;17.92;7.80;;;;;;;;;;5039416;28;20068;-71
2020/12/12 15:06:01;;;;;;;16.50;7.80;;;;;;;;;;5033908;28;20080;-72
2020/12/12 15:08:27;;;;;;;10.35;7.32;;;;;;;;;;5029167;28;20480;-72
2020/12/12 15:11:15;;;;;;;19.23;7.45;;;;;;;;;;5027958;28;20063;-70
2020/12/12 15:14:02;;;;;;;13.68;7.25;;;;;;;;;;5035587;28;20052;-71
2020/12/12 15:16:28;;;;;;;15.23;6.93;;;;;;;;;;5030946;28;20072;-73
2020/12/12 15:18:56;;;;;;;10.93;6.95;;;;;;;;;;5033317;28;20215;-73
2020/12/12 15:21:43;;;;;;;12.88;6.55;;;;;;;;;;5026751;28;20041;-74
2020/12/12 15:24:29;;;;;;;12.40;6.97;;;;;;;;;;5037676;28;20049;-72